createdAt,value
2019-03-04T00:00:56.393Z,98943.30
2019-03-04T00:01:59.841Z,98939.82
2019-03-04T00:03:03.332Z,98940.19
2019-03-04T00:04:06.783Z,98941.56
2019-03-04T00:05:10.235Z,98935.27
2019-03-04T00:06:13.687Z,98932.52
2019-03-04T00:07:17.134Z,98929.92
2019-03-04T00:08:20.601Z,98933.01
2019-03-04T00:09:24.062Z,98922.74
2019-03-04T00:10:27.507Z,98921.16
2019-03-04T00:11:30.966Z,98926.66
2019-03-04T00:12:34.426Z,98921.70
2019-03-04T00:13:37.897Z,98912.23
2019-03-04T00:14:41.354Z,98915.88
2019-03-04T00:15:44.871Z,98911.16
2019-03-04T00:16:48.390Z,98915.72
2019-03-04T00:17:51.841Z,98912.63
2019-03-04T00:18:55.356Z,98912.27
2019-03-04T00:19:58.761Z,98908.63
2019-03-04T00:21:02.255Z,98910.21
2019-03-04T00:22:05.730Z,98899.67
2019-03-04T00:23:09.187Z,98897.13
2019-03-04T00:24:12.658Z,98888.87
2019-03-04T00:25:16.180Z,98882.00
2019-03-04T00:26:19.701Z,98880.84
2019-03-04T00:27:23.150Z,98875.34
2019-03-04T00:28:26.603Z,98867.30
2019-03-04T00:29:30.077Z,98862.96
2019-03-04T00:30:33.595Z,98866.66
2019-03-04T00:31:37.199Z,98865.05
2019-03-04T00:32:40.645Z,98866.42
2019-03-04T00:33:44.097Z,98853.83
2019-03-04T00:34:47.587Z,98856.24
2019-03-04T00:35:51.042Z,98853.49
2019-03-04T00:36:54.500Z,98849.70
2019-03-04T00:37:57.950Z,98845.66
2019-03-04T00:39:01.397Z,98840.95
2019-03-04T00:40:08.067Z,98844.77
2019-03-04T00:41:11.505Z,98836.94
2019-03-04T00:42:14.942Z,98834.40
2019-03-04T00:43:18.409Z,98831.48
2019-03-04T00:44:21.846Z,98828.61
2019-03-04T00:45:25.332Z,98823.23
2019-03-04T00:46:28.798Z,98813.98
2019-03-04T00:47:32.279Z,98804.14
2019-03-04T00:48:35.710Z,98808.48
2019-03-04T00:49:39.148Z,98810.86
2019-03-04T00:50:42.613Z,98798.43
2019-03-04T00:51:46.079Z,98790.17
2019-03-04T00:52:49.528Z,98787.00
2019-03-04T00:53:52.986Z,98782.88
2019-03-04T00:54:56.454Z,98781.08
2019-03-04T00:55:59.912Z,98779.50
2019-03-04T00:57:03.383Z,98783.20
2019-03-04T00:58:06.822Z,98780.08
2019-03-04T00:59:10.277Z,98775.58
2019-03-04T01:00:17.690Z,98769.92
2019-03-04T01:01:21.218Z,98770.12
2019-03-04T01:02:24.755Z,98779.59
2019-03-04T01:03:28.224Z,98782.77
2019-03-04T01:04:31.661Z,98760.97
2019-03-04T01:05:35.202Z,98776.34
2019-03-04T01:06:38.656Z,98765.34
2019-03-04T01:07:42.165Z,98787.34
2019-03-04T01:08:45.700Z,98789.30
2019-03-04T01:09:49.140Z,98818.19
2019-03-04T01:10:52.691Z,98814.86
2019-03-04T01:11:56.169Z,98806.31
2019-03-04T01:12:59.608Z,98806.52
2019-03-04T01:14:03.319Z,98799.06
2019-03-04T01:15:10.097Z,98797.31
2019-03-04T01:16:13.544Z,98797.10
2019-03-04T01:17:17.033Z,98807.52
2019-03-04T01:18:20.494Z,98809.35
2019-03-04T01:19:23.948Z,98810.56
2019-03-04T01:20:27.414Z,98806.44
2019-03-04T01:21:30.858Z,98805.64
2019-03-04T01:22:34.615Z,98808.61
2019-03-04T01:23:38.053Z,98807.23
2019-03-04T01:24:41.495Z,98809.98
2019-03-04T01:25:44.959Z,98814.11
2019-03-04T01:26:48.400Z,98816.65
2019-03-04T01:27:51.888Z,98813.69
2019-03-04T01:28:55.347Z,98810.73
2019-03-04T01:29:58.784Z,98810.06
2019-03-04T01:31:02.246Z,98806.31
2019-03-04T01:32:05.684Z,98806.89
2019-03-04T01:33:09.139Z,98808.05
2019-03-04T01:34:12.618Z,98808.84
2019-03-04T01:35:16.128Z,98818.27
2019-03-04T01:36:19.662Z,98802.19
2019-03-04T01:37:23.126Z,98802.98
2019-03-04T01:38:26.594Z,98806.73
2019-03-04T01:39:30.072Z,98796.89
2019-03-04T01:40:33.513Z,98796.09
2019-03-04T01:41:36.951Z,98791.23
2019-03-04T01:42:40.487Z,98794.56
2019-03-04T01:43:43.949Z,98763.30
2019-03-04T01:44:47.415Z,98762.88
2019-03-04T01:45:50.878Z,98750.87
2019-03-04T01:46:54.319Z,98740.66
2019-03-04T01:47:57.773Z,98723.58
2019-03-04T01:49:01.248Z,98720.99
2019-03-04T01:50:06.043Z,98712.95
2019-03-04T01:51:09.490Z,98707.23
2019-03-04T01:52:12.943Z,98699.16
2019-03-04T01:53:16.392Z,98700.36
2019-03-04T01:54:19.871Z,98708.83
2019-03-04T01:55:23.322Z,98707.66
2019-03-04T01:56:26.769Z,98736.37
2019-03-04T01:57:30.298Z,98754.55
2019-03-04T01:58:33.750Z,98733.70
2019-03-04T01:59:37.224Z,98719.16
2019-03-04T02:00:40.821Z,98687.94
2019-03-04T02:01:44.266Z,98680.27
2019-03-04T02:02:47.867Z,98669.05
2019-03-04T02:03:51.330Z,98661.94
2019-03-04T02:04:54.797Z,98652.10
2019-03-04T02:05:58.254Z,98656.81
2019-03-04T02:07:01.714Z,98656.98
2019-03-04T02:08:05.173Z,98683.48
2019-03-04T02:09:08.690Z,98705.48
2019-03-04T02:10:19.374Z,98701.16
2019-03-04T02:11:22.826Z,98694.86
2019-03-04T02:12:26.277Z,98678.56
2019-03-04T02:13:29.799Z,98672.69
2019-03-04T02:14:33.424Z,98650.89
2019-03-04T02:15:36.965Z,98647.98
2019-03-04T02:16:40.421Z,98643.50
2019-03-04T02:17:44.009Z,98643.13
2019-03-04T02:18:47.463Z,98644.71
2019-03-04T02:19:50.917Z,98647.09
2019-03-04T02:20:54.396Z,98639.63
2019-03-04T02:21:57.837Z,98638.84
2019-03-04T02:23:01.295Z,98629.37
2019-03-04T02:24:21.662Z,98625.83
2019-03-04T02:25:42.931Z,98623.08
2019-03-04T02:26:46.385Z,98619.09
2019-03-04T02:27:54.930Z,98609.05
2019-03-04T02:28:58.381Z,98604.51
2019-03-04T02:30:01.836Z,98612.17
2019-03-04T02:31:05.838Z,98605.88
2019-03-04T02:32:09.373Z,98602.92
2019-03-04T02:33:12.815Z,98604.51
2019-03-04T02:34:16.540Z,98589.80
2019-03-04T02:35:20.132Z,98575.84
2019-03-04T02:36:23.600Z,98558.58
2019-03-04T02:37:27.050Z,98559.95
2019-03-04T02:38:30.505Z,98557.20
2019-03-04T02:39:33.960Z,98552.87
2019-03-04T02:40:37.494Z,98539.49
2019-03-04T02:41:40.960Z,98538.91
2019-03-04T02:42:44.406Z,98533.41
2019-03-04T02:43:47.932Z,98534.58
2019-03-04T02:44:51.388Z,98536.91
2019-03-04T02:45:54.870Z,98533.38
2019-03-04T02:46:58.318Z,98534.55
2019-03-04T02:48:01.766Z,98537.47
2019-03-04T02:49:05.354Z,98530.80
2019-03-04T02:50:09.146Z,98523.92
2019-03-04T02:51:12.621Z,98523.33
2019-03-04T02:52:16.079Z,98513.91
2019-03-04T02:53:19.529Z,98508.62
2019-03-04T02:54:23.015Z,98504.11
2019-03-04T02:55:26.516Z,98499.99
2019-03-04T02:56:29.999Z,98504.53
2019-03-04T02:57:33.452Z,98501.98
2019-03-04T02:58:36.993Z,98507.48
2019-03-04T02:59:40.436Z,98500.81
2019-03-04T03:00:43.974Z,98496.48
2019-03-04T03:01:47.422Z,98496.86
2019-03-04T03:02:50.868Z,98502.36
2019-03-04T03:03:54.332Z,98490.57
2019-03-04T03:04:57.774Z,98491.95
2019-03-04T03:06:01.243Z,98492.91
2019-03-04T03:07:04.868Z,98492.12
2019-03-04T03:08:08.302Z,98502.33
2019-03-04T03:09:12.880Z,98493.88
2019-03-04T03:10:16.656Z,98499.95
2019-03-04T03:11:20.096Z,98495.04
2019-03-04T03:12:23.580Z,98492.91
2019-03-04T03:13:27.021Z,98492.70
2019-03-04T03:14:30.496Z,98477.20
2019-03-04T03:15:33.962Z,98477.41
2019-03-04T03:16:37.397Z,98457.56
2019-03-04T03:17:40.978Z,98462.27
2019-03-04T03:18:44.389Z,98451.27
2019-03-04T03:19:47.827Z,98457.56
2019-03-04T03:20:51.299Z,98453.23
2019-03-04T03:21:54.739Z,98448.91
2019-03-04T03:22:58.232Z,98446.94
2019-03-04T03:24:01.700Z,98433.19
2019-03-04T03:25:07.278Z,98437.48
2019-03-04T03:26:10.734Z,98419.41
2019-03-04T03:27:14.242Z,98420.38
2019-03-04T03:28:17.697Z,98395.63
2019-03-04T03:29:21.237Z,98418.20
2019-03-04T03:30:24.673Z,98401.13
2019-03-04T03:31:28.142Z,98402.12
2019-03-04T03:32:31.607Z,98394.45
2019-03-04T03:33:35.146Z,98394.45
2019-03-04T03:34:38.599Z,98395.63
2019-03-04T03:35:42.037Z,98390.33
2019-03-04T03:36:45.475Z,98364.00
2019-03-04T03:37:48.949Z,98351.83
2019-03-04T03:38:52.415Z,98376.58
2019-03-04T03:39:55.873Z,98327.45
2019-03-04T03:40:59.342Z,98314.49
2019-03-04T03:42:02.779Z,98326.08
2019-03-04T03:43:06.315Z,98320.96
2019-03-04T03:44:09.775Z,98322.34
2019-03-04T03:45:13.487Z,98315.26
2019-03-04T03:46:16.918Z,98318.01
2019-03-04T03:47:20.378Z,98306.22
2019-03-04T03:48:24.157Z,98293.84
2019-03-04T03:49:27.643Z,98262.42
2019-03-04T03:50:31.079Z,98282.66
2019-03-04T03:51:34.546Z,98289.95
2019-03-04T03:52:37.986Z,98281.90
2019-03-04T03:53:41.491Z,98291.92
2019-03-04T03:54:44.993Z,98295.67
2019-03-04T03:55:48.427Z,98307.46
2019-03-04T03:56:51.890Z,98321.01
2019-03-04T03:57:55.361Z,98318.87
2019-03-04T03:58:58.792Z,98285.86
2019-03-04T04:00:02.456Z,98296.48
2019-03-04T04:01:05.886Z,98287.44
2019-03-04T04:02:09.393Z,98298.24
2019-03-04T04:03:13.029Z,98284.48
2019-03-04T04:04:16.494Z,98275.25
2019-03-04T04:05:20.025Z,98272.50
2019-03-04T04:06:23.475Z,98278.37
2019-03-04T04:07:26.938Z,98263.25
2019-03-04T04:08:30.373Z,98263.45
2019-03-04T04:09:33.844Z,98259.33
2019-03-04T04:10:37.333Z,98276.03
2019-03-04T04:11:40.772Z,98251.69
2019-03-04T04:12:44.238Z,98257.39
2019-03-04T04:13:47.675Z,98274.48
2019-03-04T04:14:51.113Z,98265.82
2019-03-04T04:15:54.599Z,98257.19
2019-03-04T04:16:58.033Z,98241.86
2019-03-04T04:18:01.505Z,98234.98
2019-03-04T04:19:05.026Z,98232.23
2019-03-04T04:20:09.926Z,98238.52
2019-03-04T04:21:13.410Z,98221.81
2019-03-04T04:22:16.918Z,98216.70
2019-03-04T04:23:20.363Z,98247.14
2019-03-04T04:24:23.827Z,98242.42
2019-03-04T04:25:27.296Z,98237.51
2019-03-04T04:26:30.763Z,98233.97
2019-03-04T04:27:34.232Z,98253.22
2019-03-04T04:28:37.663Z,98242.22
2019-03-04T04:29:41.135Z,98232.80
2019-03-04T04:30:44.596Z,98251.87
2019-03-04T04:31:48.040Z,98248.91
2019-03-04T04:32:51.500Z,98251.66
2019-03-04T04:33:54.940Z,98226.13
2019-03-04T04:34:58.407Z,98235.95
2019-03-04T04:36:01.958Z,98226.91
2019-03-04T04:37:05.406Z,98234.58
2019-03-04T04:38:09.000Z,98254.42
2019-03-04T04:39:12.469Z,98244.00
2019-03-04T04:40:15.907Z,98248.13
2019-03-04T04:41:19.387Z,98245.38
2019-03-04T04:42:22.828Z,98256.37
2019-03-04T04:43:26.295Z,98257.55
2019-03-04T04:44:29.768Z,98253.42
2019-03-04T04:45:33.268Z,98235.94
2019-03-04T04:46:50.784Z,98256.95
2019-03-04T04:47:54.222Z,98249.28
2019-03-04T04:48:57.665Z,98247.31
2019-03-04T04:50:01.134Z,98249.87
2019-03-04T04:51:04.569Z,98253.41
2019-03-04T04:52:08.126Z,98246.34
2019-03-04T04:53:11.588Z,98262.84
2019-03-04T04:54:15.024Z,98239.27
2019-03-04T04:55:18.562Z,98235.34
2019-03-04T04:56:21.996Z,98225.72
2019-03-04T04:57:25.455Z,98210.80
2019-03-04T04:58:28.985Z,98204.91
2019-03-04T04:59:32.493Z,98207.46
2019-03-04T05:00:35.959Z,98209.63
2019-03-04T05:01:39.419Z,98197.05
2019-03-04T05:02:42.885Z,98215.13
2019-03-04T05:03:46.402Z,98215.13
2019-03-04T05:04:49.793Z,98193.30
2019-03-04T05:05:53.232Z,98206.47
2019-03-04T05:06:56.739Z,98207.23
2019-03-04T05:08:00.199Z,98206.45
2019-03-04T05:09:04.708Z,98185.24
2019-03-04T05:10:14.053Z,98181.91
2019-03-04T05:11:17.493Z,98155.19
2019-03-04T05:12:20.950Z,98163.64
2019-03-04T05:13:24.417Z,98166.59
2019-03-04T05:14:27.875Z,98156.59
2019-03-04T05:15:31.325Z,98157.63
2019-03-04T05:16:34.773Z,98164.13
2019-03-04T05:17:39.808Z,98162.58
2019-03-04T05:18:43.450Z,98155.55
2019-03-04T05:19:46.914Z,98169.31
2019-03-04T05:20:50.369Z,98157.19
2019-03-04T05:21:53.850Z,98168.40
2019-03-04T05:22:57.310Z,98150.92
2019-03-04T05:24:00.786Z,98154.30
2019-03-04T05:25:04.694Z,98167.68
2019-03-04T05:26:08.214Z,98135.23
2019-03-04T05:27:11.666Z,98149.08
2019-03-04T05:28:15.118Z,98146.92
2019-03-04T05:29:18.602Z,98140.66
2019-03-04T05:30:22.892Z,98153.64
2019-03-04T05:31:26.342Z,98124.33
2019-03-04T05:32:29.793Z,98135.38
2019-03-04T05:33:33.238Z,98146.39
2019-03-04T05:34:36.717Z,98139.50
2019-03-04T05:35:40.172Z,98147.77
2019-03-04T05:36:43.617Z,98138.52
2019-03-04T05:37:47.142Z,98132.61
2019-03-04T05:38:50.595Z,98120.41
2019-03-04T05:39:54.069Z,98118.84
2019-03-04T05:40:57.526Z,98117.27
2019-03-04T05:42:00.992Z,98122.78
2019-03-04T05:43:04.442Z,98121.41
2019-03-04T05:44:07.890Z,98128.69
2019-03-04T05:45:15.998Z,98123.96
2019-03-04T05:46:19.456Z,98111.34
2019-03-04T05:47:22.899Z,98108.39
2019-03-04T05:48:26.355Z,98117.84
2019-03-04T05:49:29.834Z,98100.75
2019-03-04T05:50:33.311Z,98106.25
2019-03-04T05:51:36.767Z,98095.83
2019-03-04T05:52:40.218Z,98093.27
2019-03-04T05:53:43.672Z,98089.33
2019-03-04T05:54:47.122Z,98093.65
2019-03-04T05:55:50.661Z,98091.50
2019-03-04T05:56:54.117Z,98090.12
2019-03-04T05:57:57.603Z,98080.88
2019-03-04T05:59:01.054Z,98078.13
2019-03-04T06:00:13.359Z,98095.45
2019-03-04T06:01:20.051Z,98079.70
2019-03-04T06:02:23.508Z,98092.47
2019-03-04T06:03:26.958Z,98092.27
2019-03-04T06:04:30.406Z,98078.30
2019-03-04T06:05:33.858Z,98085.98
2019-03-04T06:06:47.635Z,98091.30
2019-03-04T06:07:55.491Z,98094.45
2019-03-04T06:08:58.929Z,98098.98
2019-03-04T06:10:02.384Z,98101.55
2019-03-04T06:11:05.838Z,98095.64
2019-03-04T06:12:09.329Z,98083.44
2019-03-04T06:13:12.788Z,98099.97
2019-03-04T06:14:16.227Z,98107.64
2019-03-04T06:15:21.627Z,98107.44
2019-03-04T06:16:25.077Z,98100.75
2019-03-04T06:17:28.817Z,98119.64
2019-03-04T06:18:32.273Z,98199.55
2019-03-04T06:19:35.734Z,98233.41
2019-03-04T06:20:39.194Z,98230.84
2019-03-04T06:21:42.639Z,98264.50
2019-03-04T06:22:46.093Z,98257.61
2019-03-04T06:23:49.554Z,98261.34
2019-03-04T06:24:52.993Z,98269.61
2019-03-04T06:25:56.461Z,98241.27
2019-03-04T06:26:59.923Z,98246.75
2019-03-04T06:28:03.382Z,98246.75
2019-03-04T06:29:06.847Z,98278.66
2019-03-04T06:30:13.293Z,98271.35
2019-03-04T06:31:16.805Z,98255.64
2019-03-04T06:32:20.344Z,98275.52
2019-03-04T06:33:23.809Z,98275.72
2019-03-04T06:34:27.272Z,98271.98
2019-03-04T06:35:30.739Z,98255.44
2019-03-04T06:36:34.164Z,98266.27
2019-03-04T06:37:37.628Z,98262.52
2019-03-04T06:38:41.089Z,98273.91
2019-03-04T06:39:44.996Z,98276.07
2019-03-04T06:40:48.463Z,98262.09
2019-03-04T06:41:51.897Z,98270.95
2019-03-04T06:42:55.372Z,98259.73
2019-03-04T06:43:58.860Z,98255.01
2019-03-04T06:45:02.364Z,98224.70
2019-03-04T06:46:05.834Z,98226.47
2019-03-04T06:47:09.274Z,98207.58
2019-03-04T06:48:13.185Z,98201.28
2019-03-04T06:49:16.672Z,98178.27
2019-03-04T06:50:42.652Z,98172.95
2019-03-04T06:51:46.117Z,98196.95
2019-03-04T06:52:49.579Z,98209.35
2019-03-04T06:53:58.670Z,98204.63
2019-03-04T06:55:26.066Z,98219.78
2019-03-04T06:56:35.447Z,98231.19
2019-03-04T06:57:38.963Z,98242.80
2019-03-04T06:58:54.239Z,98244.77
2019-03-04T07:00:09.381Z,98223.52
2019-03-04T07:01:15.402Z,98204.63
2019-03-04T07:02:25.292Z,98184.13
2019-03-04T07:03:28.799Z,98183.94
2019-03-04T07:04:35.322Z,98185.91
2019-03-04T07:05:50.887Z,98190.83
2019-03-04T07:06:54.408Z,98189.05
2019-03-04T07:07:57.884Z,98183.58
2019-03-04T07:09:04.530Z,98189.09
2019-03-04T07:10:09.045Z,98186.50
2019-03-04T07:11:12.534Z,98190.86
2019-03-04T07:12:15.974Z,98187.91
2019-03-04T07:13:19.440Z,98195.98
2019-03-04T07:14:22.881Z,98195.39
2019-03-04T07:15:26.318Z,98194.59
2019-03-04T07:16:32.047Z,98183.38
2019-03-04T07:17:35.049Z,98186.14
2019-03-04T07:18:38.513Z,98178.46
2019-03-04T07:19:41.984Z,98185.74
2019-03-04T07:20:45.422Z,98186.92
2019-03-04T07:21:49.160Z,98195.94
2019-03-04T07:22:52.596Z,98195.94
2019-03-04T07:23:56.042Z,98202.83
2019-03-04T07:24:59.755Z,98205.58
2019-03-04T07:26:03.290Z,98209.91
2019-03-04T07:27:06.887Z,98270.70
2019-03-04T07:28:10.344Z,98277.00
2019-03-04T07:29:15.069Z,98264.02
2019-03-04T07:30:19.975Z,98242.77
2019-03-04T07:31:23.428Z,98190.83
2019-03-04T07:32:26.950Z,98190.83
2019-03-04T07:33:30.480Z,98201.05
2019-03-04T07:34:34.149Z,98219.55
2019-03-04T07:35:37.581Z,98225.64
2019-03-04T07:36:41.103Z,98211.88
2019-03-04T07:37:44.650Z,98198.50
2019-03-04T07:38:56.116Z,98207.54
2019-03-04T07:39:59.682Z,98202.03
2019-03-04T07:41:03.145Z,98202.03
2019-03-04T07:42:06.741Z,98220.72
2019-03-04T07:43:10.221Z,98220.72
2019-03-04T07:44:13.678Z,98206.95
2019-03-04T07:45:17.278Z,98200.06
2019-03-04T07:46:20.886Z,98213.64
2019-03-04T07:47:24.456Z,98217.37
2019-03-04T07:48:28.165Z,98214.42
2019-03-04T07:49:31.708Z,98197.30
2019-03-04T07:50:35.273Z,98193.77
2019-03-04T07:51:38.729Z,98205.97
2019-03-04T07:52:42.193Z,98198.69
2019-03-04T07:53:46.700Z,98206.75
2019-03-04T07:54:50.405Z,98214.22
2019-03-04T07:55:53.858Z,98208.88
2019-03-04T07:56:57.312Z,98205.77
2019-03-04T07:58:00.790Z,98209.89
2019-03-04T07:59:04.626Z,98210.68
2019-03-04T08:00:12.815Z,98201.99
2019-03-04T08:01:16.339Z,98213.59
2019-03-04T08:02:19.797Z,98216.78
2019-03-04T08:03:23.315Z,98206.16
2019-03-04T08:04:26.926Z,98210.09
2019-03-04T08:05:30.381Z,98216.00
2019-03-04T08:06:33.834Z,98219.73
2019-03-04T08:07:49.228Z,98223.67
2019-03-04T08:09:07.186Z,98218.75
2019-03-04T08:10:25.220Z,98237.23
2019-03-04T08:12:02.996Z,98227.80
2019-03-04T08:13:10.361Z,98225.98
2019-03-04T08:14:14.551Z,98231.29
2019-03-04T08:15:18.028Z,98245.05
2019-03-04T08:17:24.023Z,98236.95
2019-03-04T08:18:27.708Z,98247.17
2019-03-04T08:19:31.183Z,98241.23
2019-03-04T08:20:35.549Z,98232.58
2019-03-04T08:21:39.333Z,98235.72
2019-03-04T08:22:43.083Z,98238.67
2019-03-04T08:23:46.539Z,98242.61
2019-03-04T08:24:50.502Z,98237.30
2019-03-04T08:25:54.173Z,98247.92
2019-03-04T08:26:57.670Z,98250.31
2019-03-04T08:28:01.150Z,98253.86
2019-03-04T08:29:04.920Z,98263.27
2019-03-04T08:30:14.351Z,98256.77
2019-03-04T08:31:17.910Z,98270.14
2019-03-04T08:32:21.437Z,98260.31
2019-03-04T08:33:25.157Z,98269.16
2019-03-04T08:34:31.407Z,98268.17
2019-03-04T08:35:33.834Z,98267.38
2019-03-04T08:36:37.346Z,98262.27
2019-03-04T08:37:40.932Z,98260.09
2019-03-04T08:38:44.443Z,98268.16
2019-03-04T08:39:48.208Z,98271.89
2019-03-04T08:40:53.283Z,98276.02
2019-03-04T08:41:56.784Z,98280.15
2019-03-04T08:43:00.225Z,98278.57
2019-03-04T08:44:03.836Z,98268.53
2019-03-04T08:45:13.371Z,98263.03
2019-03-04T08:46:16.831Z,98277.97
2019-03-04T08:47:20.353Z,98279.14
2019-03-04T08:48:23.801Z,98264.36
2019-03-04T08:49:27.340Z,98266.91
2019-03-04T08:50:30.982Z,98267.50
2019-03-04T08:51:34.426Z,98277.14
2019-03-04T08:52:37.922Z,98271.43
2019-03-04T08:53:41.571Z,98261.80
2019-03-04T08:54:45.093Z,98260.22
2019-03-04T08:55:48.584Z,98261.39
2019-03-04T08:56:52.041Z,98260.02
2019-03-04T08:57:55.588Z,98266.70
2019-03-04T08:58:59.055Z,98263.95
2019-03-04T09:00:02.495Z,98265.91
2019-03-04T09:01:05.990Z,98262.96
2019-03-04T09:02:09.504Z,98256.67
2019-03-04T09:03:12.950Z,98271.02
2019-03-04T09:04:16.490Z,98246.83
2019-03-04T09:05:20.068Z,98271.20
2019-03-04T09:06:23.632Z,98254.69
2019-03-04T09:07:27.095Z,98271.99
2019-03-04T09:08:30.533Z,98256.06
2019-03-04T09:09:34.008Z,98259.41
2019-03-04T09:10:38.132Z,98259.80
2019-03-04T09:11:41.733Z,98255.82
2019-03-04T09:12:45.280Z,98258.58
2019-03-04T09:13:48.788Z,98255.82
2019-03-04T09:14:52.379Z,98287.27
2019-03-04T09:15:55.866Z,98271.14
2019-03-04T09:16:59.333Z,98287.45
2019-03-04T09:18:02.874Z,98263.86
2019-03-04T09:19:06.314Z,98278.20
2019-03-04T09:20:14.116Z,98279.97
2019-03-04T09:21:17.586Z,98275.64
2019-03-04T09:22:21.123Z,98283.69
2019-03-04T09:23:24.683Z,98271.90
2019-03-04T09:24:28.151Z,98267.57
2019-03-04T09:25:50.090Z,98268.74
2019-03-04T09:26:53.565Z,98259.70
2019-03-04T09:27:57.094Z,98260.67
2019-03-04T09:29:00.541Z,98260.67
2019-03-04T09:30:06.617Z,98267.55
2019-03-04T09:31:10.394Z,98250.02
2019-03-04T09:32:14.059Z,98271.25
2019-03-04T09:33:17.611Z,98276.55
2019-03-04T09:34:21.060Z,98276.34
2019-03-04T09:35:24.612Z,98274.18
2019-03-04T09:36:28.139Z,98273.39
2019-03-04T09:37:31.733Z,98274.77
2019-03-04T09:38:35.301Z,98258.06
2019-03-04T09:39:38.893Z,98271.61
2019-03-04T09:40:42.518Z,98302.45
2019-03-04T09:41:45.988Z,98265.33
2019-03-04T09:42:52.668Z,98271.20
2019-03-04T09:43:56.218Z,98270.03
2019-03-04T09:44:59.642Z,98248.41
2019-03-04T09:46:03.230Z,98259.80
2019-03-04T09:47:06.772Z,98257.05
2019-03-04T09:48:22.744Z,98267.85
2019-03-04T09:49:26.307Z,98248.02
2019-03-04T09:50:34.452Z,98244.86
2019-03-04T09:51:37.910Z,98264.70
2019-03-04T09:52:41.365Z,98245.21
2019-03-04T09:53:44.822Z,98249.34
2019-03-04T09:54:48.374Z,98249.34
2019-03-04T09:55:51.904Z,98245.59
2019-03-04T09:56:55.353Z,98253.06
2019-03-04T09:57:58.818Z,98257.77
2019-03-04T09:59:02.409Z,98255.61
2019-03-04T10:00:27.114Z,98245.78
2019-03-04T10:01:33.615Z,98240.08
2019-03-04T10:02:37.410Z,98248.91
2019-03-04T10:03:43.909Z,98259.12
2019-03-04T10:05:05.261Z,98256.17
2019-03-04T10:06:29.756Z,98246.55
2019-03-04T10:07:47.890Z,98237.31
2019-03-04T10:09:09.154Z,98242.81
2019-03-04T10:10:30.604Z,98236.32
2019-03-04T10:11:58.270Z,98244.56
2019-03-04T10:13:13.523Z,98242.20
2019-03-04T10:14:20.026Z,98237.29
2019-03-04T10:15:32.338Z,98237.88
2019-03-04T10:16:44.794Z,98232.96
2019-03-04T10:17:57.274Z,98232.96
2019-03-04T10:19:09.375Z,98237.67
2019-03-04T10:20:44.453Z,98236.88
2019-03-04T10:21:59.554Z,98212.72
2019-03-04T10:23:11.911Z,98239.41
2019-03-04T10:24:23.938Z,98224.28
2019-03-04T10:26:01.890Z,98216.03
2019-03-04T10:27:08.389Z,98226.47
2019-03-04T10:28:29.727Z,98225.09
2019-03-04T10:30:05.889Z,98230.02
2019-03-04T10:31:30.555Z,98220.97
2019-03-04T10:33:00.920Z,98216.27
2019-03-04T10:34:19.411Z,98227.03
2019-03-04T10:35:34.761Z,98201.49
2019-03-04T10:36:43.875Z,98211.12
2019-03-04T10:38:08.118Z,98204.83
2019-03-04T10:39:14.701Z,98197.95
2019-03-04T10:40:42.126Z,98203.45
2019-03-04T10:41:51.479Z,98217.00
2019-03-04T10:43:09.867Z,98196.97
2019-03-04T10:44:37.894Z,98214.84
2019-03-04T10:45:47.332Z,98214.05
2019-03-04T10:46:55.925Z,98194.60
2019-03-04T10:47:59.467Z,98206.77
2019-03-04T10:49:03.017Z,98208.34
2019-03-04T10:50:09.698Z,98209.52
2019-03-04T10:51:13.249Z,98198.52
2019-03-04T10:52:16.770Z,98200.28
2019-03-04T10:53:20.261Z,98209.32
2019-03-04T10:54:25.650Z,98203.03
2019-03-04T10:55:29.322Z,98198.91
2019-03-04T10:56:32.886Z,98207.74
2019-03-04T10:57:36.409Z,98196.75
2019-03-04T10:58:39.861Z,98182.80
2019-03-04T10:59:43.417Z,98211.67
2019-03-04T11:00:47.075Z,98188.30
2019-03-04T11:01:50.532Z,98196.55
2019-03-04T11:02:54.126Z,98193.59
2019-03-04T11:03:57.904Z,98212.61
2019-03-04T11:05:02.327Z,98194.15
2019-03-04T11:06:06.001Z,98211.23
2019-03-04T11:07:09.588Z,98197.28
2019-03-04T11:08:13.031Z,98205.53
2019-03-04T11:09:16.569Z,98193.36
2019-03-04T11:10:20.317Z,98193.16
2019-03-04T11:11:29.954Z,98191.58
2019-03-04T11:12:29.095Z,98182.95
2019-03-04T11:13:32.541Z,98190.41
2019-03-04T11:14:36.067Z,98198.50
2019-03-04T11:15:39.555Z,98195.37
2019-03-04T11:16:43.083Z,98192.83
2019-03-04T11:17:46.603Z,98209.52
2019-03-04T11:18:50.210Z,98190.09
2019-03-04T11:19:53.697Z,98215.04
2019-03-04T11:20:57.925Z,98214.45
2019-03-04T11:22:01.499Z,98203.66
2019-03-04T11:23:05.997Z,98211.34
2019-03-04T11:24:10.042Z,98203.89
2019-03-04T11:25:14.611Z,98212.14
2019-03-04T11:26:18.561Z,98214.09
2019-03-04T11:27:22.388Z,98213.52
2019-03-04T11:28:26.691Z,98231.59
2019-03-04T11:29:30.249Z,98237.88
2019-03-04T11:30:33.861Z,98231.59
2019-03-04T11:31:38.045Z,98234.34
2019-03-04T11:32:42.035Z,98246.72
2019-03-04T11:33:45.658Z,98268.72
2019-03-04T11:34:49.223Z,98299.75
2019-03-04T11:35:52.678Z,98310.16
2019-03-04T11:36:56.430Z,98330.99
2019-03-04T11:37:59.970Z,98324.52
2019-03-04T11:39:19.966Z,98337.48
2019-03-04T11:40:29.817Z,98334.94
2019-03-04T11:41:33.360Z,98358.14
2019-03-04T11:42:37.005Z,98350.30
2019-03-04T11:43:40.461Z,98335.55
2019-03-04T11:44:43.925Z,98347.14
2019-03-04T11:45:49.829Z,98353.05
2019-03-04T11:46:54.291Z,98350.30
2019-03-04T11:47:59.680Z,98350.09
2019-03-04T11:49:04.646Z,98349.70
2019-03-04T11:50:11.306Z,98357.96
2019-03-04T11:51:14.753Z,98373.09
2019-03-04T11:52:18.296Z,98388.22
2019-03-04T11:53:21.752Z,98373.88
2019-03-04T11:54:25.213Z,98380.55
2019-03-04T11:55:31.604Z,98380.55
2019-03-04T11:56:35.197Z,98389.97
2019-03-04T11:57:38.677Z,98384.47
2019-03-04T11:58:42.129Z,98391.93
2019-03-04T11:59:45.688Z,98397.23
2019-03-04T12:00:56.634Z,98398.02
2019-03-04T12:02:00.087Z,98396.64
2019-03-04T12:03:03.637Z,98399.19
2019-03-04T12:04:07.233Z,98403.70
2019-03-04T12:05:12.625Z,98396.82
2019-03-04T12:06:16.084Z,98407.03
2019-03-04T12:07:19.607Z,98404.86
2019-03-04T12:08:23.152Z,98404.28
2019-03-04T12:09:26.675Z,98410.95
2019-03-04T12:10:30.433Z,98407.41
2019-03-04T12:11:38.181Z,98419.20
2019-03-04T12:12:39.206Z,98413.50
2019-03-04T12:13:42.663Z,98423.13
2019-03-04T12:14:46.140Z,98427.05
2019-03-04T12:15:49.606Z,98419.97
2019-03-04T12:16:53.185Z,98430.96
2019-03-04T12:17:56.666Z,98430.76
2019-03-04T12:19:00.145Z,98430.76
2019-03-04T12:20:04.946Z,98441.76
2019-03-04T12:21:08.422Z,98441.52
2019-03-04T12:22:11.932Z,98447.61
2019-03-04T12:23:15.563Z,98447.26
2019-03-04T12:24:19.151Z,98456.65
2019-03-04T12:25:22.733Z,98450.01
2019-03-04T12:26:26.424Z,98454.13
2019-03-04T12:27:29.856Z,98455.92
2019-03-04T12:28:34.893Z,98454.55
2019-03-04T12:29:38.362Z,98458.09
2019-03-04T12:30:41.950Z,98462.63
2019-03-04T12:31:56.027Z,98473.62
2019-03-04T12:32:59.565Z,98474.63
2019-03-04T12:34:02.995Z,98476.00
2019-03-04T12:35:09.127Z,98478.74
2019-03-04T12:36:12.564Z,98480.91
2019-03-04T12:37:16.001Z,98487.00
2019-03-04T12:38:19.465Z,98482.28
2019-03-04T12:39:22.928Z,98479.33
2019-03-04T12:40:26.416Z,98480.70
2019-03-04T12:41:30.015Z,98486.20
2019-03-04T12:42:33.448Z,98482.45
2019-03-04T12:43:36.935Z,98483.45